createdAt,value
2023-05-19T00:00:01.338Z,93057.00
2023-05-19T00:01:01.349Z,93057.00
2023-05-19T00:02:01.400Z,93059.00
2023-05-19T00:03:01.429Z,93061.00
2023-05-19T00:04:01.398Z,93061.00
2023-05-19T00:05:01.401Z,93063.00
2023-05-19T00:06:01.440Z,93063.00
2023-05-19T00:07:01.446Z,93067.00
2023-05-19T00:08:01.493Z,93065.00
2023-05-19T00:09:01.492Z,93063.00
2023-05-19T00:10:01.519Z,93063.00
2023-05-19T00:11:01.540Z,93063.00
2023-05-19T00:12:01.577Z,93061.00
2023-05-19T00:13:01.596Z,93059.00
2023-05-19T00:14:01.600Z,93057.00
2023-05-19T00:15:01.608Z,93057.00
2023-05-19T00:16:01.669Z,93057.00
2023-05-19T00:17:01.664Z,93057.00
2023-05-19T00:18:01.700Z,93057.00
2023-05-19T00:19:01.688Z,93053.00
2023-05-19T00:20:01.714Z,93057.00
2023-05-19T00:21:01.971Z,93057.00
2023-05-19T00:22:01.824Z,93057.00
2023-05-19T00:23:01.837Z,93055.00
2023-05-19T00:24:01.834Z,93053.00
2023-05-19T00:25:01.843Z,93055.00
2023-05-19T00:26:01.806Z,93055.00
2023-05-19T00:27:01.812Z,93053.00
2023-05-19T00:28:01.906Z,93053.00
2023-05-19T00:29:01.913Z,93057.00
2023-05-19T00:30:01.882Z,93055.00
2023-05-19T00:31:01.887Z,93057.00
2023-05-19T00:32:02.003Z,93053.00
2023-05-19T00:33:02.018Z,93053.00
2023-05-19T00:34:02.019Z,93055.00
2023-05-19T00:35:02.001Z,93053.00
2023-05-19T00:36:01.984Z,93053.00
2023-05-19T00:37:02.015Z,93051.00
2023-05-19T00:38:02.082Z,93053.00
2023-05-19T00:39:02.048Z,93049.00
2023-05-19T00:40:02.139Z,93053.00
2023-05-19T00:41:02.115Z,93053.00
2023-05-19T00:42:02.076Z,93053.00
2023-05-19T00:43:02.087Z,93057.00
2023-05-19T00:44:02.153Z,93055.00
2023-05-19T00:45:02.151Z,93053.00
2023-05-19T00:46:02.189Z,93051.00
2023-05-19T00:47:02.510Z,93049.00
2023-05-19T00:48:02.260Z,93051.00
2023-05-19T00:49:02.200Z,93047.00
2023-05-19T00:50:02.220Z,93045.00
2023-05-19T00:51:02.508Z,93047.00
2023-05-19T00:52:02.222Z,93045.00
2023-05-19T00:53:02.259Z,93047.00
2023-05-19T00:54:02.247Z,93047.00
2023-05-19T00:55:02.250Z,93045.00
2023-05-19T00:56:02.463Z,93049.00
2023-05-19T00:57:02.296Z,93047.00
2023-05-19T00:58:02.435Z,93043.00
2023-05-19T00:59:02.303Z,93043.00
2023-05-19T01:00:03.182Z,93045.00
2023-05-19T01:01:02.434Z,93043.00
2023-05-19T01:02:02.398Z,93045.00
2023-05-19T01:03:02.531Z,93043.00
2023-05-19T01:04:02.610Z,93043.00
2023-05-19T01:05:02.426Z,93045.00
2023-05-19T01:06:02.441Z,93041.00
2023-05-19T01:07:02.480Z,93041.00
2023-05-19T01:08:02.480Z,93041.00
2023-05-19T01:09:02.497Z,93041.00
2023-05-19T01:10:02.502Z,93039.00
2023-05-19T01:11:02.525Z,93039.00
2023-05-19T01:12:02.533Z,93041.00
2023-05-19T01:13:02.549Z,93043.00
2023-05-19T01:14:02.595Z,93041.00
2023-05-19T01:15:02.604Z,93039.00
2023-05-19T01:16:02.660Z,93041.00
2023-05-19T01:17:02.650Z,93037.00
2023-05-19T01:18:02.752Z,93037.00
2023-05-19T01:19:02.730Z,93035.00
2023-05-19T01:20:02.706Z,93034.00
2023-05-19T01:21:02.720Z,93034.00
2023-05-19T01:22:02.740Z,93032.00
2023-05-19T01:23:02.761Z,93034.00
2023-05-19T01:24:03.684Z,93034.00
2023-05-19T01:25:02.788Z,93032.00
2023-05-19T01:26:02.808Z,93035.00
2023-05-19T01:27:02.821Z,93035.00
2023-05-19T01:28:02.824Z,93037.00
2023-05-19T01:29:02.838Z,93037.00
2023-05-19T01:30:02.864Z,93037.00
2023-05-19T01:31:02.858Z,93035.00
2023-05-19T01:32:02.920Z,93037.00
2023-05-19T01:33:02.909Z,93037.00
2023-05-19T01:34:02.887Z,93037.00
2023-05-19T01:35:02.898Z,93039.00
2023-05-19T01:36:02.915Z,93041.00
2023-05-19T01:37:02.934Z,93039.00
2023-05-19T01:38:02.947Z,93039.00
2023-05-19T01:39:02.966Z,93039.00
2023-05-19T01:40:02.974Z,93039.00
2023-05-19T01:41:03.072Z,93039.00
2023-05-19T01:42:03.002Z,93039.00
2023-05-19T01:43:03.016Z,93037.00
2023-05-19T01:44:03.025Z,93037.00
2023-05-19T01:45:03.041Z,93035.00
2023-05-19T01:46:03.204Z,93037.00
2023-05-19T01:47:03.051Z,93037.00
2023-05-19T01:48:03.110Z,93035.00
2023-05-19T01:49:03.058Z,93035.00
2023-05-19T01:50:03.047Z,93037.00
2023-05-19T01:51:03.102Z,93034.00
2023-05-19T01:52:03.060Z,93035.00
2023-05-19T01:53:03.082Z,93034.00
2023-05-19T01:54:03.085Z,93035.00
2023-05-19T01:55:03.083Z,93034.00
2023-05-19T01:56:03.081Z,93034.00
2023-05-19T01:57:03.088Z,93034.00
2023-05-19T01:58:03.093Z,93035.00
2023-05-19T01:59:03.096Z,93035.00
2023-05-19T02:00:03.098Z,93035.00
2023-05-19T02:01:03.160Z,93035.00
2023-05-19T02:02:03.107Z,93037.00
2023-05-19T02:03:03.181Z,93037.00
2023-05-19T02:04:03.134Z,93039.00
2023-05-19T02:05:03.098Z,93039.00
2023-05-19T02:06:03.111Z,93039.00
2023-05-19T02:07:03.098Z,93041.00
2023-05-19T02:08:03.081Z,93039.00
2023-05-19T02:09:03.102Z,93039.00
2023-05-19T02:10:03.129Z,93039.00
2023-05-19T02:11:03.110Z,93039.00
2023-05-19T02:12:03.115Z,93043.00
2023-05-19T02:13:03.224Z,93043.00
2023-05-19T02:14:03.173Z,93045.00
2023-05-19T02:15:03.229Z,93047.00
2023-05-19T02:16:03.194Z,93045.00
2023-05-19T02:17:03.182Z,93043.00
2023-05-19T02:18:03.245Z,93041.00
2023-05-19T02:19:03.248Z,93041.00
2023-05-19T02:20:03.237Z,93041.00
2023-05-19T02:21:03.269Z,93043.00
2023-05-19T02:22:03.259Z,93041.00
2023-05-19T02:23:03.261Z,93041.00
2023-05-19T02:24:03.294Z,93041.00
2023-05-19T02:25:03.306Z,93039.00
2023-05-19T02:26:03.328Z,93043.00
2023-05-19T02:27:03.345Z,93039.00
2023-05-19T02:28:03.347Z,93039.00
2023-05-19T02:29:03.335Z,93041.00
2023-05-19T02:30:03.370Z,93045.00
2023-05-19T02:31:03.699Z,93043.00
2023-05-19T02:32:03.442Z,93039.00
2023-05-19T02:33:03.436Z,93039.00
2023-05-19T02:34:03.364Z,93043.00
2023-05-19T02:35:03.363Z,93037.00
2023-05-19T02:36:03.408Z,93037.00
2023-05-19T02:37:03.384Z,93037.00
2023-05-19T02:38:03.374Z,93037.00
2023-05-19T02:39:03.414Z,93037.00
2023-05-19T02:40:03.402Z,93037.00
2023-05-19T02:41:03.447Z,93034.00
2023-05-19T02:42:03.356Z,93035.00
2023-05-19T02:43:03.378Z,93034.00
2023-05-19T02:44:03.432Z,93032.00
2023-05-19T02:45:03.411Z,93030.00
2023-05-19T02:46:03.463Z,93032.00
2023-05-19T02:47:03.478Z,93030.00
2023-05-19T02:48:03.486Z,93026.00
2023-05-19T02:49:03.520Z,93026.00
2023-05-19T02:50:03.493Z,93022.00
2023-05-19T02:51:03.544Z,93024.00
2023-05-19T02:52:03.536Z,93020.00
2023-05-19T02:53:03.416Z,93020.00
2023-05-19T02:54:03.415Z,93020.00
2023-05-19T02:55:03.414Z,93020.00
2023-05-19T02:56:03.430Z,93018.00
2023-05-19T02:57:03.429Z,93018.00
2023-05-19T02:58:03.423Z,93016.00
2023-05-19T02:59:03.421Z,93018.00
2023-05-19T03:00:03.434Z,93020.00
2023-05-19T03:01:03.454Z,93016.00
2023-05-19T03:02:03.492Z,93016.00
2023-05-19T03:03:03.490Z,93016.00
2023-05-19T03:04:03.569Z,93016.00
2023-05-19T03:05:03.476Z,93014.00
2023-05-19T03:06:03.507Z,93014.00
2023-05-19T03:07:03.498Z,93012.00
2023-05-19T03:08:03.509Z,93010.00
2023-05-19T03:09:03.514Z,93010.00
2023-05-19T03:10:03.505Z,93010.00
2023-05-19T03:11:03.644Z,93008.00
2023-05-19T03:12:03.516Z,93006.00
2023-05-19T03:13:03.508Z,93008.00
2023-05-19T03:14:03.524Z,93006.00
2023-05-19T03:15:03.518Z,93006.00
2023-05-19T03:16:03.607Z,93006.00
2023-05-19T03:17:03.577Z,93006.00
2023-05-19T03:18:03.636Z,93004.00
2023-05-19T03:19:03.625Z,93008.00
2023-05-19T03:20:03.577Z,93004.00
2023-05-19T03:21:03.564Z,93002.00
2023-05-19T03:22:03.557Z,93002.00
2023-05-19T03:23:03.545Z,93002.00
2023-05-19T03:24:03.549Z,92996.00
2023-05-19T03:25:03.549Z,92994.00
2023-05-19T03:26:03.558Z,92994.00
2023-05-19T03:27:03.553Z,92996.00
2023-05-19T03:28:03.559Z,92998.00
2023-05-19T03:29:03.585Z,93000.00
2023-05-19T03:30:06.317Z,93000.00
2023-05-19T03:31:03.579Z,92998.00
2023-05-19T03:32:03.586Z,92998.00
2023-05-19T03:33:03.621Z,93000.00
2023-05-19T03:34:03.538Z,93000.00
2023-05-19T03:35:03.541Z,92998.00
2023-05-19T03:36:03.529Z,93000.00
2023-05-19T03:37:03.513Z,93000.00
2023-05-19T03:38:03.508Z,93000.00
2023-05-19T03:39:03.513Z,92998.00
2023-05-19T03:40:03.496Z,92996.00
2023-05-19T03:41:03.506Z,92996.00
2023-05-19T03:42:03.482Z,92996.00
2023-05-19T03:43:03.555Z,92996.00
2023-05-19T03:44:03.450Z,92998.00
2023-05-19T03:45:03.453Z,92998.00
2023-05-19T03:46:03.566Z,93000.00
2023-05-19T03:47:03.424Z,92998.00
2023-05-19T03:48:03.516Z,92998.00
2023-05-19T03:49:03.412Z,93002.00
2023-05-19T03:50:03.407Z,93002.00
2023-05-19T03:51:03.401Z,93004.00
2023-05-19T03:52:03.483Z,93006.00
2023-05-19T03:53:03.395Z,93006.00
2023-05-19T03:54:03.376Z,93008.00
2023-05-19T03:55:03.382Z,93008.00
2023-05-19T03:56:03.408Z,93010.00
2023-05-19T03:57:03.364Z,93010.00
2023-05-19T03:58:03.359Z,93012.00
2023-05-19T03:59:03.340Z,93014.00
2023-05-19T04:00:03.343Z,93016.00
2023-05-19T04:01:03.347Z,93018.00
2023-05-19T04:02:03.369Z,93016.00
2023-05-19T04:03:03.491Z,93012.00
2023-05-19T04:04:03.356Z,93014.00
2023-05-19T04:05:03.327Z,93016.00
2023-05-19T04:06:03.344Z,93014.00
2023-05-19T04:07:03.320Z,93016.00
2023-05-19T04:08:03.327Z,93014.00
2023-05-19T04:09:03.309Z,93014.00
2023-05-19T04:10:03.300Z,93016.00
2023-05-19T04:11:03.314Z,93016.00
2023-05-19T04:12:03.290Z,93018.00
2023-05-19T04:13:03.301Z,93016.00
2023-05-19T04:14:03.304Z,93018.00
2023-05-19T04:15:03.291Z,93020.00
2023-05-19T04:16:03.351Z,93018.00
2023-05-19T04:17:03.276Z,93016.00
2023-05-19T04:18:03.327Z,93018.00
2023-05-19T04:19:03.334Z,93020.00
2023-05-19T04:20:03.263Z,93018.00
2023-05-19T04:21:03.293Z,93020.00
2023-05-19T04:22:03.261Z,93018.00
2023-05-19T04:23:03.243Z,93022.00
2023-05-19T04:24:03.239Z,93022.00
2023-05-19T04:25:03.224Z,93022.00
2023-05-19T04:26:03.218Z,93022.00
2023-05-19T04:27:03.733Z,93024.00
2023-05-19T04:28:03.218Z,93026.00
2023-05-19T04:29:03.202Z,93024.00
2023-05-19T04:30:03.217Z,93022.00
2023-05-19T04:31:03.237Z,93026.00
2023-05-19T04:32:03.173Z,93022.00
2023-05-19T04:33:03.216Z,93024.00
2023-05-19T04:34:03.175Z,93028.00
2023-05-19T04:35:03.172Z,93026.00
2023-05-19T04:36:03.170Z,93030.00
2023-05-19T04:37:03.154Z,93030.00
2023-05-19T04:38:03.147Z,93026.00
2023-05-19T04:39:03.123Z,93028.00
2023-05-19T04:40:03.113Z,93028.00
2023-05-19T04:41:03.096Z,93028.00
2023-05-19T04:42:03.085Z,93026.00
2023-05-19T04:43:03.084Z,93028.00
2023-05-19T04:44:03.072Z,93026.00
2023-05-19T04:45:03.059Z,93024.00
2023-05-19T04:46:03.044Z,93024.00
2023-05-19T04:47:03.112Z,93022.00
2023-05-19T04:48:03.055Z,93024.00
2023-05-19T04:49:03.040Z,93022.00
2023-05-19T04:50:03.021Z,93024.00
2023-05-19T04:51:03.026Z,93026.00
2023-05-19T04:52:03.008Z,93024.00
2023-05-19T04:53:03.116Z,93028.00
2023-05-19T04:54:02.996Z,93030.00
2023-05-19T04:55:02.991Z,93034.00
2023-05-19T04:56:02.991Z,93032.00
2023-05-19T04:57:02.986Z,93032.00
2023-05-19T04:58:02.979Z,93034.00
2023-05-19T04:59:02.960Z,93032.00
2023-05-19T05:00:02.969Z,93032.00
2023-05-19T05:01:02.955Z,93030.00
2023-05-19T05:02:02.967Z,93030.00
2023-05-19T05:03:02.968Z,93032.00
2023-05-19T05:04:03.136Z,93032.00
2023-05-19T05:05:02.934Z,93035.00
2023-05-19T05:06:02.914Z,93034.00
2023-05-19T05:07:02.905Z,93032.00
2023-05-19T05:08:02.888Z,93035.00
2023-05-19T05:09:02.882Z,93035.00
2023-05-19T05:10:02.864Z,93037.00
2023-05-19T05:11:02.865Z,93034.00
2023-05-19T05:12:02.844Z,93034.00
2023-05-19T05:13:02.836Z,93035.00
2023-05-19T05:14:02.835Z,93035.00
2023-05-19T05:15:02.811Z,93035.00
2023-05-19T05:16:02.817Z,93037.00
2023-05-19T05:17:02.798Z,93037.00
2023-05-19T05:18:02.827Z,93037.00
2023-05-19T05:19:02.912Z,93039.00
2023-05-19T05:20:02.853Z,93041.00
2023-05-19T05:21:02.890Z,93037.00
2023-05-19T05:22:02.901Z,93035.00
2023-05-19T05:23:02.938Z,93037.00
2023-05-19T05:24:02.979Z,93037.00
2023-05-19T05:25:03.013Z,93035.00
2023-05-19T05:26:03.068Z,93035.00
2023-05-19T05:27:03.066Z,93035.00
2023-05-19T05:28:03.067Z,93034.00
2023-05-19T05:29:03.088Z,93034.00
2023-05-19T05:30:03.079Z,93032.00
2023-05-19T05:31:03.111Z,93034.00
2023-05-19T05:32:03.142Z,93034.00
2023-05-19T05:33:03.203Z,93034.00
2023-05-19T05:34:03.176Z,93032.00
2023-05-19T05:35:03.214Z,93032.00
2023-05-19T05:36:03.234Z,93034.00
2023-05-19T05:37:03.255Z,93034.00
2023-05-19T05:38:03.259Z,93032.00
2023-05-19T05:39:03.285Z,93032.00
2023-05-19T05:40:03.384Z,93034.00
2023-05-19T05:41:03.445Z,93034.00
2023-05-19T05:42:03.360Z,93035.00
2023-05-19T05:43:03.366Z,93034.00
2023-05-19T05:44:03.393Z,93035.00
2023-05-19T05:45:03.414Z,93034.00
2023-05-19T05:46:03.509Z,93035.00
2023-05-19T05:47:03.465Z,93035.00
2023-05-19T05:48:03.523Z,93035.00
2023-05-19T05:49:03.545Z,93037.00
2023-05-19T05:50:03.583Z,93035.00
2023-05-19T05:51:03.612Z,93034.00
2023-05-19T05:52:06.217Z,93034.00
2023-05-19T05:53:03.669Z,93034.00
2023-05-19T05:54:03.654Z,93035.00
2023-05-19T05:55:03.650Z,93034.00
2023-05-19T05:56:03.634Z,93035.00
2023-05-19T05:57:03.640Z,93035.00
2023-05-19T05:58:03.631Z,93035.00
2023-05-19T05:59:03.611Z,93034.00
2023-05-19T06:00:03.596Z,93030.00
2023-05-19T06:01:03.588Z,93030.00
2023-05-19T06:02:03.624Z,93030.00
2023-05-19T06:03:03.654Z,93030.00
2023-05-19T06:04:03.559Z,93032.00
2023-05-19T06:05:03.546Z,93028.00
2023-05-19T06:06:03.682Z,93030.00
2023-05-19T06:07:03.521Z,93030.00
2023-05-19T06:08:03.521Z,93034.00
2023-05-19T06:09:03.499Z,93030.00
2023-05-19T06:10:03.513Z,93028.00
2023-05-19T06:11:03.486Z,93026.00
2023-05-19T06:12:03.487Z,93030.00
2023-05-19T06:13:03.470Z,93024.00
2023-05-19T06:14:03.456Z,93030.00
2023-05-19T06:15:03.445Z,93030.00
2023-05-19T06:16:03.477Z,93030.00
2023-05-19T06:17:03.433Z,93028.00
2023-05-19T06:18:03.479Z,93028.00
2023-05-19T06:19:03.427Z,93030.00
2023-05-19T06:20:03.399Z,93026.00
2023-05-19T06:21:03.436Z,93026.00
2023-05-19T06:22:03.384Z,93032.00
2023-05-19T06:23:03.383Z,93028.00
2023-05-19T06:24:03.364Z,93030.00
2023-05-19T06:25:03.350Z,93030.00
2023-05-19T06:26:03.335Z,93030.00
2023-05-19T06:27:03.313Z,93030.00
2023-05-19T06:28:03.308Z,93030.00
2023-05-19T06:29:03.298Z,93030.00
2023-05-19T06:30:03.294Z,93032.00
2023-05-19T06:31:03.343Z,93032.00
2023-05-19T06:32:03.265Z,93032.00
2023-05-19T06:33:03.296Z,93032.00
2023-05-19T06:34:03.241Z,93030.00
2023-05-19T06:35:03.224Z,93030.00
2023-05-19T06:36:03.221Z,93028.00
2023-05-19T06:37:03.213Z,93028.00
2023-05-19T06:38:03.217Z,93028.00
2023-05-19T06:39:03.251Z,93026.00
2023-05-19T06:40:03.305Z,93026.00
2023-05-19T06:41:03.356Z,93026.00
2023-05-19T06:42:03.424Z,93028.00
2023-05-19T06:43:03.473Z,93028.00
2023-05-19T06:44:03.515Z,93026.00
2023-05-19T06:45:03.568Z,93024.00
2023-05-19T06:46:03.611Z,93024.00
2023-05-19T06:47:03.709Z,93024.00
2023-05-19T06:48:03.696Z,93022.00
2023-05-19T06:49:03.702Z,93020.00
2023-05-19T06:50:03.761Z,93022.00
2023-05-19T06:51:03.802Z,93020.00
2023-05-19T06:52:03.837Z,93020.00
2023-05-19T06:53:03.876Z,93022.00
2023-05-19T06:54:03.906Z,93024.00
2023-05-19T06:55:03.916Z,93020.00
2023-05-19T06:56:03.954Z,93016.00
2023-05-19T06:57:03.978Z,93016.00
2023-05-19T06:58:04.015Z,93016.00
2023-05-19T06:59:04.067Z,93014.00
2023-05-19T07:00:04.108Z,93016.00
2023-05-19T07:01:04.178Z,93016.00
2023-05-19T07:02:04.203Z,93016.00
2023-05-19T07:03:04.296Z,93016.00
2023-05-19T07:04:04.336Z,93018.00
2023-05-19T07:05:04.312Z,93014.00
2023-05-19T07:06:05.750Z,93018.00
2023-05-19T07:07:04.351Z,93020.00
2023-05-19T07:08:04.337Z,93018.00
2023-05-19T07:09:04.346Z,93018.00
2023-05-19T07:10:04.311Z,93016.00
2023-05-19T07:11:04.311Z,93014.00
2023-05-19T07:12:04.282Z,93016.00
2023-05-19T07:13:04.257Z,93012.00
2023-05-19T07:14:04.264Z,93010.00
2023-05-19T07:15:04.331Z,93006.00
2023-05-19T07:16:04.241Z,93006.00
2023-05-19T07:17:04.377Z,93004.00
2023-05-19T07:18:04.195Z,93006.00
2023-05-19T07:19:04.181Z,93002.00
2023-05-19T07:20:04.157Z,93000.00
2023-05-19T07:21:04.129Z,93000.00
2023-05-19T07:22:04.119Z,92998.00
2023-05-19T07:23:04.137Z,92996.00
2023-05-19T07:24:04.079Z,92994.00
2023-05-19T07:25:04.068Z,92992.00
2023-05-19T07:26:04.051Z,92992.00
2023-05-19T07:27:04.046Z,92990.00
2023-05-19T07:28:04.028Z,92990.00
2023-05-19T07:29:04.017Z,92990.00
2023-05-19T07:30:03.997Z,92988.00
2023-05-19T07:31:04.005Z,92983.00
2023-05-19T07:32:04.004Z,92983.00
2023-05-19T07:33:04.004Z,92983.00
2023-05-19T07:34:03.955Z,92981.00
2023-05-19T07:35:03.931Z,92981.00
2023-05-19T07:36:03.911Z,92979.00
2023-05-19T07:37:03.900Z,92981.00
2023-05-19T07:38:03.883Z,92981.00
2023-05-19T07:39:03.889Z,92981.00
2023-05-19T07:40:03.855Z,92977.00
2023-05-19T07:41:03.901Z,92977.00
2023-05-19T07:42:03.934Z,92979.00
2023-05-19T07:43:03.980Z,92977.00
2023-05-19T07:44:04.044Z,92975.00
2023-05-19T07:45:04.069Z,92975.00
2023-05-19T07:46:04.169Z,92973.00
2023-05-19T07:47:04.148Z,92971.00
2023-05-19T07:48:04.202Z,92971.00
2023-05-19T07:49:04.437Z,92967.00
2023-05-19T07:50:04.305Z,92965.00
2023-05-19T07:51:04.325Z,92969.00
2023-05-19T07:52:04.375Z,92965.00
2023-05-19T07:53:04.415Z,92965.00
2023-05-19T07:54:04.465Z,92963.00
2023-05-19T07:55:04.504Z,92961.00
2023-05-19T07:56:04.537Z,92963.00
2023-05-19T07:57:04.587Z,92963.00
2023-05-19T07:58:04.611Z,92957.00
2023-05-19T07:59:04.664Z,92959.00
2023-05-19T08:00:04.704Z,92953.00
2023-05-19T08:01:04.749Z,92955.00
2023-05-19T08:02:04.818Z,92951.00
2023-05-19T08:03:04.975Z,92945.00
2023-05-19T08:04:04.988Z,92943.00
2023-05-19T08:05:04.934Z,92943.00
2023-05-19T08:06:04.975Z,92941.00
2023-05-19T08:07:05.018Z,92945.00
2023-05-19T08:08:05.064Z,92940.00
2023-05-19T08:09:05.104Z,92938.00
2023-05-19T08:10:05.172Z,92938.00
2023-05-19T08:11:05.202Z,92938.00
2023-05-19T08:12:05.259Z,92934.00
2023-05-19T08:13:05.324Z,92932.00
2023-05-19T08:14:05.347Z,92932.00
2023-05-19T08:15:05.408Z,92926.00
2023-05-19T08:16:05.495Z,92922.00
2023-05-19T08:17:05.476Z,92924.00
2023-05-19T08:18:05.561Z,92922.00
2023-05-19T08:19:05.614Z,92922.00
2023-05-19T08:20:05.593Z,92922.00
2023-05-19T08:21:05.649Z,92918.00
2023-05-19T08:22:05.674Z,92914.00
2023-05-19T08:23:05.706Z,92914.00
2023-05-19T08:24:05.748Z,92918.00
2023-05-19T08:25:05.792Z,92916.00
2023-05-19T08:26:05.818Z,92914.00
2023-05-19T08:27:05.864Z,92912.00
2023-05-19T08:28:05.899Z,92910.00
2023-05-19T08:29:05.940Z,92910.00
2023-05-19T08:30:05.985Z,92906.00
2023-05-19T08:31:06.044Z,92902.00
2023-05-19T08:32:06.059Z,92904.00
2023-05-19T08:33:06.149Z,92904.00
2023-05-19T08:34:06.213Z,92900.00
2023-05-19T08:35:06.176Z,92898.00
2023-05-19T08:36:06.205Z,92896.00
2023-05-19T08:37:06.253Z,92896.00
2023-05-19T08:38:06.288Z,92894.00
2023-05-19T08:39:06.334Z,92894.00
2023-05-19T08:40:06.364Z,92890.00
2023-05-19T08:41:06.404Z,92888.00
2023-05-19T08:42:06.442Z,92886.00
2023-05-19T08:43:06.619Z,92885.00
2023-05-19T08:44:06.503Z,92885.00
2023-05-19T08:45:06.534Z,92883.00
2023-05-19T08:46:06.611Z,92873.00
2023-05-19T08:47:06.632Z,92877.00
2023-05-19T08:48:06.650Z,92873.00
2023-05-19T08:49:06.689Z,92869.00
2023-05-19T08:50:06.716Z,92867.00
2023-05-19T08:51:06.752Z,92867.00
2023-05-19T08:52:06.792Z,92865.00
2023-05-19T08:53:10.854Z,92861.00
2023-05-19T08:54:07.799Z,92861.00
2023-05-19T08:55:06.778Z,92857.00
2023-05-19T08:56:06.762Z,92855.00
2023-05-19T08:57:06.748Z,92855.00
2023-05-19T08:58:06.739Z,92853.00
2023-05-19T08:59:06.722Z,92851.00
2023-05-19T09:00:06.712Z,92849.00
2023-05-19T09:01:06.751Z,92849.00
2023-05-19T09:02:06.717Z,92840.00
2023-05-19T09:04:06.769Z,92847.00
2023-05-19T09:05:06.692Z,92838.00
2023-05-19T09:06:06.669Z,92836.00
2023-05-19T09:07:06.611Z,92838.00
2023-05-19T09:08:06.606Z,92836.00
2023-05-19T09:09:06.600Z,92834.00
2023-05-19T09:10:06.559Z,92830.00
2023-05-19T09:11:06.546Z,92830.00
2023-05-19T09:12:06.536Z,92830.00
2023-05-19T09:13:06.528Z,92830.00
2023-05-19T09:14:06.639Z,92828.00
2023-05-19T09:15:06.490Z,92828.00
2023-05-19T09:16:06.589Z,92828.00
2023-05-19T09:17:06.567Z,92828.00
2023-05-19T09:18:06.475Z,92824.00
2023-05-19T09:19:06.489Z,92824.00
2023-05-19T09:20:06.518Z,92822.00
2023-05-19T09:21:06.561Z,92822.00
2023-05-19T09:22:06.696Z,92820.00
2023-05-19T09:23:06.619Z,92814.00
2023-05-19T09:24:06.683Z,92814.00
2023-05-19T09:25:06.659Z,92812.00
2023-05-19T09:26:06.716Z,92814.00
2023-05-19T09:27:06.734Z,92812.00
2023-05-19T09:28:06.762Z,92814.00
2023-05-19T09:29:06.794Z,92810.00
2023-05-19T09:30:06.820Z,92810.00
2023-05-19T09:31:06.889Z,92806.00
2023-05-19T09:32:06.942Z,92802.00
2023-05-19T09:33:06.923Z,92802.00
2023-05-19T09:34:06.937Z,92801.00
2023-05-19T09:35:07.028Z,92802.00
2023-05-19T09:36:07.008Z,92801.00
2023-05-19T09:37:07.032Z,92799.00
2023-05-19T09:38:07.057Z,92795.00
2023-05-19T09:39:07.086Z,92797.00
2023-05-19T09:40:07.116Z,92801.00
2023-05-19T09:41:07.198Z,92793.00
2023-05-19T09:42:07.172Z,92795.00
2023-05-19T09:43:07.202Z,92795.00
2023-05-19T09:44:07.239Z,92795.00
2023-05-19T09:45:07.258Z,92789.00
2023-05-19T09:46:07.507Z,92791.00
2023-05-19T09:47:07.327Z,92785.00
2023-05-19T09:48:07.376Z,92791.00
2023-05-19T09:49:07.389Z,92785.00
2023-05-19T09:50:07.409Z,92783.00
2023-05-19T09:51:07.439Z,92781.00
2023-05-19T09:52:07.471Z,92777.00
2023-05-19T09:53:07.522Z,92775.00
2023-05-19T09:54:07.517Z,92775.00
2023-05-19T09:55:07.542Z,92773.00
2023-05-19T09:56:07.583Z,92775.00
2023-05-19T09:57:08.629Z,92775.00
2023-05-19T09:58:07.637Z,92775.00
2023-05-19T09:59:07.677Z,92775.00
2023-05-19T10:00:07.692Z,92769.00
2023-05-19T10:01:07.768Z,92775.00
2023-05-19T10:02:07.764Z,92775.00
2023-05-19T10:03:07.840Z,92771.00
2023-05-19T10:04:07.825Z,92771.00
2023-05-19T10:05:07.903Z,92769.00
2023-05-19T10:06:07.874Z,92771.00
2023-05-19T10:07:07.911Z,92773.00
2023-05-19T10:08:07.929Z,92771.00
2023-05-19T10:09:07.972Z,92773.00
2023-05-19T10:10:07.998Z,92767.00
2023-05-19T10:11:08.026Z,92761.00
2023-05-19T10:12:08.067Z,92761.00
2023-05-19T10:13:08.087Z,92759.00
2023-05-19T10:14:08.119Z,92761.00
2023-05-19T10:15:08.152Z,92757.00
2023-05-19T10:16:08.254Z,92757.00
2023-05-19T10:17:08.234Z,92755.00
2023-05-19T10:18:08.287Z,92754.00
2023-05-19T10:19:08.329Z,92752.00
2023-05-19T10:20:08.314Z,92750.00
2023-05-19T10:21:08.324Z,92754.00
2023-05-19T10:22:08.343Z,92750.00
2023-05-19T10:23:08.376Z,92750.00
2023-05-19T10:24:08.404Z,92752.00
2023-05-19T10:25:08.439Z,92750.00
2023-05-19T10:26:08.467Z,92746.00
2023-05-19T10:27:08.486Z,92746.00
2023-05-19T10:28:08.514Z,92746.00
2023-05-19T10:29:08.549Z,92750.00
2023-05-19T10:30:10.171Z,92746.00
2023-05-19T10:31:08.540Z,92742.00
2023-05-19T10:32:08.624Z,92742.00
2023-05-19T10:33:08.584Z,92742.00
2023-05-19T10:34:08.496Z,92738.00
2023-05-19T10:35:08.508Z,92734.00
2023-05-19T10:36:08.493Z,92734.00
2023-05-19T10:37:08.480Z,92734.00
2023-05-19T10:38:08.431Z,92732.00
2023-05-19T10:39:08.408Z,92732.00
2023-05-19T10:40:08.395Z,92732.00
2023-05-19T10:41:08.377Z,92732.00
2023-05-19T10:42:08.373Z,92734.00
2023-05-19T10:43:08.338Z,92728.00
2023-05-19T10:44:08.325Z,92728.00
2023-05-19T10:45:08.328Z,92726.00
2023-05-19T10:46:08.300Z,92732.00
2023-05-19T10:47:08.309Z,92728.00
2023-05-19T10:48:08.329Z,92732.00
2023-05-19T10:49:08.288Z,92726.00
2023-05-19T10:50:08.233Z,92728.00
2023-05-19T10:51:08.257Z,92730.00
2023-05-19T10:52:08.220Z,92730.00
2023-05-19T10:53:08.181Z,92734.00
2023-05-19T10:54:08.231Z,92732.00
2023-05-19T10:55:08.146Z,92732.00
2023-05-19T10:56:08.164Z,92730.00
2023-05-19T10:57:08.147Z,92732.00
2023-05-19T10:58:08.129Z,92724.00
2023-05-19T10:59:08.107Z,92732.00
2023-05-19T11:00:08.101Z,92724.00
2023-05-19T11:01:08.082Z,92728.00
2023-05-19T11:02:08.292Z,92724.00
2023-05-19T11:03:08.157Z,92722.00
2023-05-19T11:04:08.185Z,92734.00
2023-05-19T11:05:08.056Z,92726.00
2023-05-19T11:06:08.003Z,92730.00
2023-05-19T11:07:07.997Z,92724.00
2023-05-19T11:08:07.984Z,92716.00
2023-05-19T11:09:07.969Z,92714.00
2023-05-19T11:10:07.962Z,92712.00
2023-05-19T11:11:07.958Z,92718.00
2023-05-19T11:12:08.040Z,92718.00
2023-05-19T11:13:07.929Z,92714.00
2023-05-19T11:14:07.918Z,92710.00
2023-05-19T11:15:07.896Z,92714.00
2023-05-19T11:16:07.901Z,92712.00
2023-05-19T11:17:07.913Z,92710.00
2023-05-19T11:18:07.958Z,92714.00
2023-05-19T11:19:07.936Z,92714.00
2023-05-19T11:20:07.913Z,92712.00
2023-05-19T11:21:07.919Z,92708.00
2023-05-19T11:22:07.914Z,92710.00
2023-05-19T11:23:08.026Z,92707.00
2023-05-19T11:24:07.870Z,92707.00
2023-05-19T11:25:07.947Z,92705.00
2023-05-19T11:26:07.940Z,92703.00
2023-05-19T11:27:07.965Z,92701.00
2023-05-19T11:28:07.991Z,92703.00
2023-05-19T11:29:08.034Z,92705.00
2023-05-19T11:30:07.991Z,92701.00
2023-05-19T11:31:08.022Z,92701.00
2023-05-19T11:32:08.094Z,92699.00
2023-05-19T11:33:08.177Z,92697.00
2023-05-19T11:34:08.098Z,92691.00
2023-05-19T11:35:08.131Z,92695.00
2023-05-19T11:36:08.165Z,92691.00
2023-05-19T11:37:08.174Z,92693.00
2023-05-19T11:38:08.196Z,92693.00
2023-05-19T11:39:08.273Z,92695.00
2023-05-19T11:40:08.328Z,92693.00
2023-05-19T11:41:08.294Z,92691.00
2023-05-19T11:42:08.322Z,92691.00
2023-05-19T11:43:08.338Z,92689.00
2023-05-19T11:44:08.357Z,92693.00
2023-05-19T11:45:08.375Z,92695.00